»·PEaware :: N678JC KEGE-KTEX

N678JC :: KEGE-KTEX

FLIGHT INFORMATION

Flight Status: Arrived
Operator: Privately registered:
United States
More flights under this callsign
Pilot: Darren N. (43856)
Aircraft: SOCATA TBM-700
(TBM7)
More flights by this aircraft type
Origin: KEGE Eagle Co Regl
United States
Destination: KTEX Telluride Regl
United States
More flights between these airports :: More routes between these airports
Route: BEVVR1 SPRKT MTJ ETL
File this flight plan on PilotEdge
Remarks:
Altitude:
(Current/Filed)
15,000ft
Speed:
(Current/Filed)
200kts
Departed: 10-Sep-23 05:36 PM
Arrived: 10-Sep-23 06:16 PM
Distance/Time
Traveled:
111nm/0:40
Distance/Time
To Go:
Arrived

Flight Plot

Page will automatically refresh every two minutes.

Flight plan parsing failed; only flown route is shown


Map Options




Map Legend


Flown Route
Filed Route
Departure Airport
Arrival Airport
Navaid (VOR, NDB)
Fix

Horizontal Profiles

Position Reports

Time Latitude Longitude Heading Altitude Ground
Speed
10-Sep-23 17:25 39.641833 -106.915592 130 6519ft 0kts
10-Sep-23 17:26 39.641833 -106.915592 130 6519ft 0kts
10-Sep-23 17:27 39.641833 -106.915592 130 6519ft 0kts
10-Sep-23 17:28 39.641833 -106.915592 130 6519ft 0kts
10-Sep-23 17:29 39.641833 -106.915592 130 6519ft 0kts
10-Sep-23 17:30 39.641130 -106.915694 314 6510ft 0kts
10-Sep-23 17:31 39.641130 -106.915694 314 6510ft 0kts
10-Sep-23 17:32 39.641130 -106.915694 314 6510ft 0kts
10-Sep-23 17:33 39.641998 -106.913542 76 6517ft 15kts
10-Sep-23 17:34 39.643350 -106.900527 56 6551ft 0kts
10-Sep-23 17:35 39.644212 -106.904086 262 6541ft 75kts
10-Sep-23 17:36 39.622552 -106.932883 195 7921ft 161kts
10-Sep-23 17:37 39.585894 -106.979185 238 9552ft 201kts
10-Sep-23 17:38 39.582345 -107.051413 286 10866ft 209kts
10-Sep-23 17:39 39.622081 -107.105201 337 12304ft 218kts
10-Sep-23 17:40 39.676595 -107.100660 6 14909ft 190kts
10-Sep-23 17:41 39.738109 -107.105934 321 14926ft 249kts
10-Sep-23 17:42 39.779819 -107.178884 302 14880ft 255kts
10-Sep-23 17:43 39.801557 -107.261458 246 14819ft 254kts
10-Sep-23 17:44 39.741115 -107.307304 203 14811ft 261kts
10-Sep-23 17:45 39.620693 -107.366324 204 14788ft 261kts
10-Sep-23 17:46 39.485143 -107.432142 204 14817ft 260kts
10-Sep-23 17:47 39.349980 -107.497523 203 14803ft 261kts
10-Sep-23 17:48 39.267322 -107.537366 203 14783ft 262kts
10-Sep-23 17:49 39.130621 -107.603047 204 14762ft 262kts
10-Sep-23 17:50 38.992688 -107.669072 204 14768ft 268kts
10-Sep-23 17:51 38.852721 -107.735768 203 14822ft 268kts
10-Sep-23 17:52 38.711564 -107.802734 203 14879ft 269kts
10-Sep-23 17:53 38.641114 -107.836062 203 14947ft 270kts
10-Sep-23 17:54 38.570556 -107.869352 203 14993ft 271kts
10-Sep-23 17:55 38.499153 -107.899522 188 14989ft 273kts
10-Sep-23 17:56 38.432064 -107.931614 221 15002ft 266kts
10-Sep-23 17:57 38.369956 -107.983898 215 14941ft 267kts
10-Sep-23 17:58 38.307630 -108.036137 215 14900ft 268kts
10-Sep-23 17:59 38.244228 -108.089238 215 14307ft 282kts
10-Sep-23 18:00 38.178212 -108.144275 215 13393ft 285kts
10-Sep-23 18:01 38.126650 -108.186866 216 12932ft 179kts
10-Sep-23 18:02 38.086629 -108.219660 208 12934ft 167kts
10-Sep-23 18:03 38.044540 -108.243155 216 12937ft 163kts
10-Sep-23 18:04 38.034558 -108.291220 298 12911ft 158kts
10-Sep-23 18:05 38.068396 -108.310354 46 12875ft 172kts
10-Sep-23 18:06 38.048557 -108.269149 158 12925ft 169kts
10-Sep-23 18:07 38.027107 -108.215902 112 12996ft 170kts
10-Sep-23 18:08 38.010277 -108.160978 112 13051ft 164kts
10-Sep-23 18:09 37.995405 -108.107216 104 12620ft 140kts
10-Sep-23 18:10 37.986588 -108.064847 103 11861ft 118kts
10-Sep-23 18:11 37.978301 -108.025305 103 11197ft 117kts
10-Sep-23 18:12 37.969525 -107.985274 101 10438ft 114kts
10-Sep-23 18:13 37.961549 -107.947272 99 9722ft 110kts
10-Sep-23 18:14 37.954472 -107.912153 103 9020ft 61kts
10-Sep-23 18:15 37.953120 -107.901234 343 9052ft 18kts
10-Sep-23 18:16 37.954096 -107.902850 276 9054ft 0kts
10-Sep-23 18:17 37.954099 -107.902887 274 9054ft 0kts
10-Sep-23 18:18 37.954099 -107.902887 274 9054ft 0kts
10-Sep-23 18:19 37.954099 -107.902887 274 9054ft 0kts
10-Sep-23 18:20 37.954099 -107.902887 274 9054ft 0kts
10-Sep-23 18:21 37.954099 -107.902887 274 9054ft 0kts
10-Sep-23 18:22 37.954099 -107.902887 274 9054ft 0kts

Navigation Log

Ident Type
Flight plan parsing failed, navigation log unavailable